Badlands National Park, SD

1:16 PM MST on March 05, 2015 (GMT -0700)
RAWS PINNACLES SD US | Change Station
CLOSE
Current Station
Personal Weather Station
Location: Wall, SD
Elevation: 3080 ft
Nearby Weather Stations

Elev 3080 ft 43.88 °N, 102.24 °W | Updated 56 minutes ago

Partly Cloudy
Partly Cloudy
30 °F
Feels Like 20 °F
N
13
Wind Variable Wind from South
Gusts 17.0 mph

Today
High -- | Low -- °F
--% Chance of Precip.
Yesterday
High -- | Low -- °F
Precip. -- in
6:17 AM 5:41 PM
Full, 100% visible
Pressure 30.26 in
Visibility 10.0 miles
Clouds Mostly Cloudy 8000 ft
Overcast 9500 ft
Windchill 20 °F
Dew Point 16 °F
Humidity 56%
Rainfall in
Snow Depth Not available.
UV 2 out of 12
Pollen 1.10 out of 12
Air Quality Not available.
Flu Activity Not available.
METAR KPHP 051955Z AUTO 23010KT 10SM BKN080 OVC095 M01/M08 A3014 RMK AO2 SLP246 T10061083

More Conditions Fewer Conditions

Pressure 30.26 in
Visibility 10.0 miles
Clouds Mostly Cloudy 8000 ft
Overcast 9500 ft
Windchill 20 °F
Dew Point 16 °F
Humidity 56%
Rainfall in
Snow Depth Not available.
UV 2 out of 12
Pollen 1.10 out of 12
Air Quality Not available.
Flu Activity Not available.
METAR KPHP 051955Z AUTO 23010KT 10SM BKN080 OVC095 M01/M08 A3014 RMK AO2 SLP246 T10061083

More Conditions Fewer Conditions

10-Day Weather Forecast

Almanac

Astronomy

Mar. 05, 2015 Rise Set
Actual Time
Civil Twilight
Nautical Twilight
Astronomical Twilight
Moon
Length of Visible Light
Length of Day
Tomorrow will be .
, % of the Moon is Illuminated

Today's Extremes

State Highs State Lows

Community

WunderPhotos

Upload Photos

1,802,938 photos uploaded!

WunderBlogs® & News

Nearby

Air Quality

  Air Quality AQ Index Pollutant
Not available.

Snow Depth

Station Depth Elevation

Earthquake Activity

City Distance Mag. Time & Date
Minimum magnitude displayed is 2.5.

Coastal Water Temperatures

Place Temperature

Nearby Weather Stations